createdAt,value
2023-03-19T00:00:45.114Z,100639.05
2023-03-19T00:01:47.490Z,100642.42
2023-03-19T00:02:51.398Z,100640.69
2023-03-19T00:03:54.296Z,100644.16
2023-03-19T00:04:56.700Z,100637.31
2023-03-19T00:05:59.638Z,100644.14
2023-03-19T00:07:02.127Z,100635.66
2023-03-19T00:08:05.738Z,100640.06
2023-03-19T00:09:08.612Z,100634.02
2023-03-19T00:10:12.716Z,100640.02
2023-03-19T00:11:15.172Z,100637.37
2023-03-19T00:12:17.654Z,100639.91
2023-03-19T00:13:20.414Z,100639.09
2023-03-19T00:14:22.836Z,100635.66
2023-03-19T00:15:25.588Z,100629.60
2023-03-19T00:16:28.118Z,100630.50
2023-03-19T00:17:31.409Z,100640.11
2023-03-19T00:18:34.205Z,100628.94
2023-03-19T00:19:36.669Z,100631.49
2023-03-19T00:20:39.086Z,100629.01
2023-03-19T00:21:41.962Z,100626.45
2023-03-19T00:22:45.273Z,100623.80
2023-03-19T00:23:48.703Z,100628.13
2023-03-19T00:24:51.789Z,100630.74
2023-03-19T00:25:54.424Z,100620.39
2023-03-19T00:26:56.993Z,100617.81
2023-03-19T00:28:01.064Z,100611.78
2023-03-19T00:29:05.353Z,100611.73
2023-03-19T00:30:08.806Z,100618.68
2023-03-19T00:31:14.788Z,100618.62
2023-03-19T00:32:17.062Z,100610.91
2023-03-19T00:33:21.228Z,100610.88
2023-03-19T00:34:24.147Z,100614.28
2023-03-19T00:35:26.615Z,100614.28
2023-03-19T00:36:29.789Z,100611.73
2023-03-19T00:37:33.137Z,100605.66
2023-03-19T00:38:35.958Z,100611.65
2023-03-19T00:39:38.814Z,100608.17
2023-03-19T00:40:42.133Z,100610.75
2023-03-19T00:41:46.956Z,100613.34
2023-03-19T00:42:49.336Z,100614.11
2023-03-19T00:43:55.669Z,100618.38
2023-03-19T00:44:58.426Z,100611.50
2023-03-19T00:46:00.804Z,100609.81
2023-03-19T00:47:03.043Z,100604.92
2023-03-19T00:48:06.077Z,100610.88
2023-03-19T00:49:08.421Z,100610.89
2023-03-19T00:50:12.267Z,100604.84
2023-03-19T00:51:15.443Z,100610.02
2023-03-19T00:52:18.216Z,100610.02
2023-03-19T00:53:20.976Z,100615.16
2023-03-19T00:54:23.380Z,100606.54
2023-03-19T00:55:26.830Z,100603.91
2023-03-19T00:56:30.012Z,100605.59
2023-03-19T00:57:32.323Z,100607.27
2023-03-19T00:58:35.954Z,100602.94
2023-03-19T00:59:38.128Z,100602.95
2023-03-19T01:00:41.470Z,100601.30
2023-03-19T01:01:45.918Z,100604.77
2023-03-19T01:02:48.755Z,100604.77
2023-03-19T01:03:52.592Z,100603.01
2023-03-19T01:04:54.945Z,100601.22
2023-03-19T01:06:00.037Z,100606.31
2023-03-19T01:07:02.566Z,100595.14
2023-03-19T01:08:05.840Z,100602.91
2023-03-19T01:09:08.201Z,100591.73
2023-03-19T01:10:13.025Z,100592.63
2023-03-19T01:11:16.655Z,100597.03
2023-03-19T01:12:19.335Z,100591.94
2023-03-19T01:13:21.724Z,100596.31
2023-03-19T01:14:24.907Z,100594.65
2023-03-19T01:15:27.330Z,100598.12
2023-03-19T01:16:29.981Z,100594.77
2023-03-19T01:17:32.810Z,100597.37
2023-03-19T01:18:35.680Z,100591.45
2023-03-19T01:19:37.980Z,100596.69
2023-03-19T01:20:43.518Z,100591.61
2023-03-19T01:21:45.762Z,100591.66
2023-03-19T01:22:50.349Z,100587.45
2023-03-19T01:23:53.673Z,100595.23
2023-03-19T01:24:57.603Z,100587.58
2023-03-19T01:26:00.399Z,100598.73
2023-03-19T01:27:04.292Z,100595.34
2023-03-19T01:28:12.403Z,100596.22
2023-03-19T01:29:16.195Z,100593.68
2023-03-19T01:30:20.083Z,100596.25
2023-03-19T01:31:26.999Z,100593.73
2023-03-19T01:32:48.026Z,100596.31
2023-03-19T01:34:05.208Z,100597.11
2023-03-19T01:35:11.092Z,100593.73
2023-03-19T01:36:14.004Z,100597.17
2023-03-19T01:37:24.167Z,100593.75
2023-03-19T01:38:28.229Z,100597.23
2023-03-19T01:39:33.611Z,100597.19
2023-03-19T01:40:46.955Z,100595.47
2023-03-19T01:41:50.036Z,100598.06
2023-03-19T01:43:18.803Z,100593.69
2023-03-19T01:44:31.951Z,100592.86
2023-03-19T01:45:56.637Z,100601.48
2023-03-19T01:47:26.082Z,100592.03
2023-03-19T01:48:50.134Z,100593.75
2023-03-19T01:49:56.485Z,100593.78
2023-03-19T01:52:10.393Z,100598.02
2023-03-19T01:53:27.440Z,100594.67
2023-03-19T01:54:39.366Z,100592.08
2023-03-19T01:55:56.350Z,100592.09
2023-03-19T01:57:16.941Z,100598.95
2023-03-19T01:58:26.123Z,100609.27
2023-03-19T01:59:51.961Z,100598.94
2023-03-19T02:01:03.909Z,100595.52
2023-03-19T02:02:14.538Z,100609.27
2023-03-19T02:03:17.288Z,100605.88
2023-03-19T02:04:24.112Z,100605.03
2023-03-19T02:05:26.527Z,100609.47
2023-03-19T02:06:32.575Z,100609.47
2023-03-19T02:07:36.714Z,100606.02
2023-03-19T02:08:40.323Z,100607.74
2023-03-19T02:09:45.169Z,100607.74
2023-03-19T02:10:47.786Z,100602.63
2023-03-19T02:11:51.088Z,100604.33
2023-03-19T02:12:53.792Z,100609.50
2023-03-19T02:13:57.283Z,100602.63
2023-03-19T02:14:59.806Z,100606.07
2023-03-19T02:16:03.737Z,100608.62
2023-03-19T02:17:08.059Z,100606.09
2023-03-19T02:18:11.197Z,100607.78
2023-03-19T02:19:21.168Z,100606.06
2023-03-19T02:20:33.262Z,100605.20
2023-03-19T02:21:36.007Z,100606.11
2023-03-19T02:22:41.911Z,100609.54
2023-03-19T02:24:03.149Z,100608.70
2023-03-19T02:25:20.354Z,100612.12
2023-03-19T02:26:26.871Z,100607.00
2023-03-19T02:27:32.286Z,100616.45
2023-03-19T02:28:38.330Z,100611.30
2023-03-19T02:29:41.007Z,100607.04
2023-03-19T02:30:45.233Z,100609.62
2023-03-19T02:31:47.560Z,100609.62
2023-03-19T02:32:49.890Z,100614.73
2023-03-19T02:34:01.022Z,100617.33
2023-03-19T02:35:03.782Z,100611.34
2023-03-19T02:36:10.033Z,100613.05
2023-03-19T02:37:27.959Z,100613.05
2023-03-19T02:38:33.420Z,100614.77
2023-03-19T02:39:58.791Z,100619.92
2023-03-19T02:41:04.485Z,100619.92
2023-03-19T02:42:09.421Z,100622.46
2023-03-19T02:43:12.131Z,100614.73
2023-03-19T02:44:15.221Z,100616.45
2023-03-19T02:45:18.266Z,100616.45
2023-03-19T02:46:20.790Z,100613.02
2023-03-19T02:47:24.213Z,100625.04
2023-03-19T02:48:26.676Z,100626.75
2023-03-19T02:49:28.990Z,100616.42
2023-03-19T02:50:32.432Z,100610.38
2023-03-19T02:51:36.931Z,100615.53
2023-03-19T02:52:39.360Z,100618.97
2023-03-19T02:53:41.505Z,100619.79
2023-03-19T02:54:44.420Z,100623.23
2023-03-19T02:55:47.390Z,100615.52
2023-03-19T02:56:51.820Z,100624.08
2023-03-19T02:57:55.299Z,100617.19
2023-03-19T02:58:57.748Z,100625.76
2023-03-19T03:00:00.132Z,100621.45
2023-03-19T03:01:03.689Z,100618.05
2023-03-19T03:02:06.873Z,100628.31
2023-03-19T03:03:09.867Z,100630.03
2023-03-19T03:04:14.214Z,100623.16
2023-03-19T03:05:16.830Z,100626.59
2023-03-19T03:06:19.322Z,100631.75
2023-03-19T03:07:22.397Z,100635.19
2023-03-19T03:08:24.694Z,100628.31
2023-03-19T03:09:27.153Z,100631.75
2023-03-19T03:10:30.448Z,100622.30
2023-03-19T03:11:32.907Z,100624.88
2023-03-19T03:12:36.083Z,100634.34
2023-03-19T03:13:38.704Z,100631.80
2023-03-19T03:14:41.284Z,100626.66
2023-03-19T03:15:44.165Z,100633.55
2023-03-19T03:16:46.703Z,100632.67
2023-03-19T03:17:48.962Z,100637.86
2023-03-19T03:18:51.451Z,100630.12
2023-03-19T03:19:55.142Z,100626.72
2023-03-19T03:20:57.852Z,100624.14
2023-03-19T03:22:00.936Z,100624.13
2023-03-19T03:23:04.745Z,100625.86
2023-03-19T03:24:08.844Z,100625.88
2023-03-19T03:25:12.415Z,100627.61
2023-03-19T03:26:15.212Z,100623.34
2023-03-19T03:27:18.563Z,100625.04
2023-03-19T03:28:20.863Z,100628.51
2023-03-19T03:29:23.196Z,100624.23
2023-03-19T03:30:26.269Z,100627.69
2023-03-19T03:31:29.372Z,100621.70
2023-03-19T03:32:32.896Z,100624.31
2023-03-19T03:33:35.833Z,100615.75
2023-03-19T03:34:38.942Z,100617.43
2023-03-19T03:35:41.284Z,100628.58
2023-03-19T03:36:45.757Z,100622.58
2023-03-19T03:37:49.825Z,100628.58
2023-03-19T03:38:52.297Z,100621.70
2023-03-19T03:39:54.742Z,100625.14
2023-03-19T03:40:58.189Z,100623.42
2023-03-19T03:42:01.479Z,100632.03
2023-03-19T03:43:04.882Z,100628.61
2023-03-19T03:44:09.645Z,100627.76
2023-03-19T03:45:13.887Z,100624.33
2023-03-19T03:46:17.260Z,100627.77
2023-03-19T03:47:20.981Z,100625.20
2023-03-19T03:48:23.548Z,100626.92
2023-03-19T03:49:26.510Z,100620.89
2023-03-19T03:50:29.005Z,100623.48
2023-03-19T03:51:32.798Z,100622.66
2023-03-19T03:52:35.602Z,100626.97
2023-03-19T03:53:38.111Z,100626.98
2023-03-19T03:54:41.421Z,100625.27
2023-03-19T03:55:43.774Z,100633.84
2023-03-19T03:56:47.162Z,100628.67
2023-03-19T03:57:49.662Z,100626.11
2023-03-19T03:58:52.370Z,100626.98
2023-03-19T03:59:55.122Z,100625.27
2023-03-19T04:00:58.056Z,100625.27
2023-03-19T04:02:01.038Z,100625.25
2023-03-19T04:03:03.750Z,100634.70
2023-03-19T04:04:06.041Z,100629.52
2023-03-19T04:05:09.329Z,100637.27
2023-03-19T04:06:18.122Z,100624.38
2023-03-19T04:07:24.530Z,100626.96
2023-03-19T04:08:28.709Z,100626.98
2023-03-19T04:09:30.920Z,100627.84
2023-03-19T04:10:36.140Z,100621.86
2023-03-19T04:11:40.929Z,100622.73
2023-03-19T04:12:45.339Z,100622.76
2023-03-19T04:13:47.567Z,100623.63
2023-03-19T04:14:50.617Z,100626.22
2023-03-19T04:15:54.004Z,100638.25
2023-03-19T04:16:57.260Z,100623.66
2023-03-19T04:18:00.844Z,100626.23
2023-03-19T04:19:03.965Z,100624.52
2023-03-19T04:20:07.542Z,100622.81
2023-03-19T04:21:09.843Z,100627.08
2023-03-19T04:22:12.294Z,100625.35
2023-03-19T04:23:14.882Z,100628.80
2023-03-19T04:24:17.243Z,100624.52
2023-03-19T04:25:20.117Z,100621.08
2023-03-19T04:26:22.724Z,100621.09
2023-03-19T04:27:25.380Z,100616.80
2023-03-19T04:28:28.785Z,100619.34
2023-03-19T04:29:31.518Z,100619.34
2023-03-19T04:30:35.668Z,100623.62
2023-03-19T04:31:38.735Z,100621.05
2023-03-19T04:32:41.192Z,100621.91
2023-03-19T04:33:43.948Z,100621.06
2023-03-19T04:34:48.019Z,100625.33
2023-03-19T04:35:50.579Z,100619.30
2023-03-19T04:36:53.702Z,100623.59
2023-03-19T04:37:56.387Z,100619.30
2023-03-19T04:38:58.823Z,100618.46
2023-03-19T04:40:01.688Z,100625.33
2023-03-19T04:41:06.613Z,100623.61
2023-03-19T04:42:11.006Z,100631.34
2023-03-19T04:43:15.363Z,100620.20
2023-03-19T04:44:19.442Z,100614.21
2023-03-19T04:45:21.948Z,100615.06
2023-03-19T04:46:24.598Z,100625.36
2023-03-19T04:47:26.998Z,100625.36
2023-03-19T04:48:31.684Z,100622.77
2023-03-19T04:49:34.666Z,100618.47
2023-03-19T04:50:38.911Z,100615.91
2023-03-19T04:51:42.775Z,100618.47
2023-03-19T04:52:45.738Z,100618.48
2023-03-19T04:53:49.849Z,100611.60
2023-03-19T04:54:52.355Z,100619.30
2023-03-19T04:55:55.464Z,100616.75
2023-03-19T04:56:58.363Z,100618.45
2023-03-19T04:58:02.199Z,100627.00
2023-03-19T04:59:06.170Z,100620.17
2023-03-19T05:00:10.306Z,100623.59
2023-03-19T05:01:13.993Z,100625.33
2023-03-19T05:02:18.497Z,100615.05
2023-03-19T05:03:21.449Z,100618.48
2023-03-19T05:04:24.331Z,100621.88
2023-03-19T05:05:28.511Z,100615.90
2023-03-19T05:06:32.221Z,100609.86
2023-03-19T05:07:34.719Z,100609.86
2023-03-19T05:08:38.242Z,100620.95
2023-03-19T05:09:42.913Z,100620.08
2023-03-19T05:10:45.499Z,100616.60
2023-03-19T05:11:47.932Z,100613.11
2023-03-19T05:12:52.755Z,100617.40
2023-03-19T05:13:55.352Z,100613.95
2023-03-19T05:14:58.409Z,100613.09
2023-03-19T05:16:03.163Z,100619.11
2023-03-19T05:17:07.093Z,100616.57
2023-03-19T05:18:12.414Z,100617.43
2023-03-19T05:19:16.869Z,100614.88
2023-03-19T05:20:20.356Z,100618.30
2023-03-19T05:21:26.179Z,100613.16
2023-03-19T05:22:28.528Z,100613.16
2023-03-19T05:23:31.856Z,100610.59
2023-03-19T05:24:38.884Z,100608.03
2023-03-19T05:25:41.209Z,100608.02
2023-03-19T05:26:45.806Z,100608.89
2023-03-19T05:27:58.596Z,100612.34
2023-03-19T05:29:01.534Z,100615.78
2023-03-19T05:30:07.353Z,100620.94
2023-03-19T05:31:26.967Z,100610.64
2023-03-19T05:32:30.317Z,100623.50
2023-03-19T05:33:34.881Z,100616.64
2023-03-19T05:34:37.327Z,100614.05
2023-03-19T05:35:40.071Z,100608.91
2023-03-19T05:36:44.389Z,100609.77
2023-03-19T05:37:48.586Z,100613.19
2023-03-19T05:38:50.792Z,100607.16
2023-03-19T05:39:55.155Z,100605.43
2023-03-19T05:41:03.884Z,100616.59
2023-03-19T05:42:08.344Z,100609.72
2023-03-19T05:43:11.635Z,100604.57
2023-03-19T05:44:14.767Z,100602.82
2023-03-19T05:45:36.722Z,100611.38
2023-03-19T05:46:42.180Z,100605.38
2023-03-19T05:47:49.526Z,100610.52
2023-03-19T05:48:52.355Z,100604.50
2023-03-19T05:49:55.017Z,100611.38
2023-03-19T05:50:58.815Z,100611.38
2023-03-19T05:52:03.546Z,100610.48
2023-03-19T05:53:06.442Z,100613.05
2023-03-19T05:54:09.935Z,100610.46
2023-03-19T05:55:14.355Z,100610.46
2023-03-19T05:56:18.909Z,100614.73
2023-03-19T05:57:26.280Z,100618.15
2023-03-19T05:58:31.584Z,100608.69
2023-03-19T05:59:34.890Z,100616.41
2023-03-19T06:00:41.060Z,100612.94
2023-03-19T06:01:43.601Z,100621.50
2023-03-19T06:02:46.400Z,100617.16
2023-03-19T06:03:53.718Z,100618.86
2023-03-19T06:04:57.326Z,100611.97
2023-03-19T06:06:01.633Z,100613.64
2023-03-19T06:07:09.078Z,100617.05
2023-03-19T06:08:12.085Z,100616.19
2023-03-19T06:09:31.412Z,100613.59
2023-03-19T06:10:35.993Z,100617.86
2023-03-19T06:11:42.412Z,100620.43
2023-03-19T06:12:47.220Z,100610.94
2023-03-19T06:13:51.685Z,100619.52
2023-03-19T06:14:54.240Z,100619.47
2023-03-19T06:16:14.128Z,100617.67
2023-03-19T06:17:18.474Z,100615.06
2023-03-19T06:18:21.822Z,100614.17
2023-03-19T06:19:24.425Z,100617.59
2023-03-19T06:20:28.540Z,100621.88
2023-03-19T06:21:32.078Z,100611.54
2023-03-19T06:22:37.517Z,100617.52
2023-03-19T06:23:41.343Z,100614.02
2023-03-19T06:24:44.307Z,100617.41
2023-03-19T06:25:46.644Z,100614.78
2023-03-19T06:26:49.641Z,100621.69
2023-03-19T06:27:52.527Z,100623.37
2023-03-19T06:28:56.860Z,100619.91
2023-03-19T06:29:59.414Z,100618.12
2023-03-19T06:31:04.129Z,100621.58
2023-03-19T06:32:25.118Z,100619.78
2023-03-19T06:33:30.378Z,100625.72
2023-03-19T06:34:32.676Z,100625.65
2023-03-19T06:35:35.099Z,100628.19
2023-03-19T06:36:39.070Z,100625.56
2023-03-19T06:37:43.513Z,100625.50
2023-03-19T06:38:46.148Z,100622.03
2023-03-19T06:39:48.921Z,100631.45
2023-03-19T06:40:52.347Z,100631.42
2023-03-19T06:41:57.326Z,100628.77
2023-03-19T06:43:01.141Z,100633.88
2023-03-19T06:44:05.365Z,100634.67
2023-03-19T06:45:08.593Z,100635.46
2023-03-19T06:46:11.969Z,100630.27
2023-03-19T06:47:15.933Z,100634.51
2023-03-19T06:48:18.727Z,100633.61
2023-03-19T06:49:21.479Z,100635.27
2023-03-19T06:50:24.568Z,100640.38
2023-03-19T06:51:30.060Z,100635.19
2023-03-19T06:52:32.374Z,100631.70
2023-03-19T06:53:35.014Z,100636.81
2023-03-19T06:54:38.465Z,100636.78
2023-03-19T06:55:41.349Z,100630.67
2023-03-19T06:56:44.338Z,100634.91
2023-03-19T06:57:52.762Z,100637.44
2023-03-19T06:58:56.776Z,100637.37
2023-03-19T07:00:00.367Z,100634.70
2023-03-19T07:01:03.100Z,100633.80
2023-03-19T07:02:06.129Z,100638.03
2023-03-19T07:03:10.375Z,100629.33
2023-03-19T07:04:12.819Z,100635.31
2023-03-19T07:05:15.261Z,100636.92
2023-03-19T07:06:17.555Z,100632.63
2023-03-19T07:07:20.608Z,100640.31
2023-03-19T07:08:23.353Z,100631.68
2023-03-19T07:09:27.261Z,100633.47
2023-03-19T07:10:31.115Z,100639.45
2023-03-19T07:11:35.831Z,100636.79
2023-03-19T07:12:37.732Z,100634.97
2023-03-19T07:13:41.825Z,100635.04
2023-03-19T07:14:44.353Z,100642.77
2023-03-19T07:15:47.020Z,100639.34
2023-03-19T07:16:49.429Z,100637.63
2023-03-19T07:17:51.888Z,100639.41
2023-03-19T07:18:54.265Z,100644.69
2023-03-19T07:19:56.631Z,100641.19
2023-03-19T07:20:59.553Z,100642.13
2023-03-19T07:22:01.866Z,100637.90
2023-03-19T07:23:04.141Z,100641.30
2023-03-19T07:24:07.493Z,100641.30
2023-03-19T07:25:10.332Z,100633.43
2023-03-19T07:26:13.206Z,100637.73
2023-03-19T07:27:15.950Z,100632.52
2023-03-19T07:28:18.432Z,100637.59
2023-03-19T07:29:20.912Z,100640.98
2023-03-19T07:30:23.878Z,100639.20
2023-03-19T07:31:27.527Z,100634.02
2023-03-19T07:32:32.645Z,100639.09
2023-03-19T07:33:35.530Z,100640.81
2023-03-19T07:34:37.970Z,100647.63
2023-03-19T07:35:40.412Z,100647.59
2023-03-19T07:36:43.042Z,100637.16
2023-03-19T07:37:45.844Z,100637.16
2023-03-19T07:38:48.250Z,100641.31
2023-03-19T07:39:50.728Z,100641.31
2023-03-19T07:41:01.880Z,100641.23
2023-03-19T07:41:59.691Z,100639.45
2023-03-19T07:43:03.859Z,100642.03
2023-03-19T07:44:07.840Z,100641.96
2023-03-19T07:45:11.469Z,100638.45
2023-03-19T07:46:14.230Z,100634.91
2023-03-19T07:47:28.551Z,100642.56
2023-03-19T07:48:21.227Z,100641.69
2023-03-19T07:49:24.083Z,100641.56
2023-03-19T07:50:27.645Z,100635.47
2023-03-19T07:51:30.060Z,100640.56
2023-03-19T07:52:32.972Z,100637.92
2023-03-19T07:53:36.245Z,100628.33
2023-03-19T07:54:38.377Z,100630.83
2023-03-19T07:55:42.937Z,100640.23
2023-03-19T07:56:45.417Z,100636.02
2023-03-19T07:57:47.950Z,100627.32
2023-03-19T07:58:51.176Z,100638.73
2023-03-19T07:59:54.004Z,100632.70
2023-03-19T08:00:56.538Z,100626.53
2023-03-19T08:01:59.294Z,100629.12
2023-03-19T08:03:02.296Z,100629.03
2023-03-19T08:04:05.165Z,100629.86
2023-03-19T08:05:09.076Z,100630.78
2023-03-19T08:06:12.766Z,100636.89
2023-03-19T08:07:15.717Z,100631.83
2023-03-19T08:08:19.680Z,100618.92
2023-03-19T08:09:22.974Z,100628.45
2023-03-19T08:10:25.611Z,100632.67
2023-03-19T08:11:29.330Z,100624.81
2023-03-19T08:12:33.736Z,100635.09
2023-03-19T08:13:37.077Z,100627.31
2023-03-19T08:14:39.914Z,100632.41
2023-03-19T08:15:42.253Z,100632.23
2023-03-19T08:16:44.942Z,100633.87
2023-03-19T08:17:50.633Z,100633.81
2023-03-19T08:18:54.143Z,100633.03
2023-03-19T08:19:57.618Z,100633.87
2023-03-19T08:21:02.193Z,100631.27
2023-03-19T08:22:06.424Z,100630.34
2023-03-19T08:23:10.028Z,100631.18
2023-03-19T08:24:12.933Z,100637.23
2023-03-19T08:25:15.780Z,100633.73
2023-03-19T08:26:18.200Z,100633.73
2023-03-19T08:27:20.856Z,100633.73
2023-03-19T08:28:23.514Z,100630.44
2023-03-19T08:29:27.118Z,100625.39
2023-03-19T08:30:29.916Z,100630.03
2023-03-19T08:31:33.085Z,100625.43
2023-03-19T08:32:37.500Z,100628.97
2023-03-19T08:33:41.748Z,100628.81
2023-03-19T08:34:44.185Z,100625.34
2023-03-19T08:35:46.580Z,100617.73
2023-03-19T08:36:49.798Z,100616.94
2023-03-19T08:37:53.140Z,100625.81
2023-03-19T08:38:55.945Z,100620.72
2023-03-19T08:39:59.792Z,100626.00
2023-03-19T08:41:03.690Z,100627.64
2023-03-19T08:42:06.765Z,100633.66
2023-03-19T08:43:11.075Z,100628.52
2023-03-19T08:44:13.669Z,100619.88
2023-03-19T08:45:16.431Z,100624.11
2023-03-19T08:46:19.234Z,100619.66
2023-03-19T08:47:23.475Z,100615.55
2023-03-19T08:48:27.707Z,100617.22
2023-03-19T08:49:30.727Z,100605.91
2023-03-19T08:50:33.682Z,100607.47
2023-03-19T08:51:36.346Z,100602.20
2023-03-19T08:52:38.683Z,100607.42
2023-03-19T08:53:41.062Z,100609.56
2023-03-19T08:54:43.790Z,100613.94
2023-03-19T08:55:51.820Z,100613.06
2023-03-19T08:56:54.289Z,100612.88
2023-03-19T08:57:56.908Z,100611.89
2023-03-19T08:58:59.396Z,100610.05
2023-03-19T09:00:05.051Z,100612.44
2023-03-19T09:01:10.380Z,100610.48
2023-03-19T09:02:13.283Z,100606.84
2023-03-19T09:03:17.303Z,100605.75
2023-03-19T09:04:21.434Z,100603.82
2023-03-19T09:05:23.843Z,100601.92
2023-03-19T09:06:26.980Z,100601.73
2023-03-19T09:07:29.890Z,100598.88
2023-03-19T09:08:33.598Z,100603.03
2023-03-19T09:09:37.200Z,100596.83
2023-03-19T09:10:40.964Z,100598.42
2023-03-19T09:11:43.417Z,100594.75
2023-03-19T09:12:48.437Z,100594.50
2023-03-19T09:13:50.497Z,100591.12
2023-03-19T09:14:54.020Z,100593.52
2023-03-19T09:15:56.621Z,100584.69
2023-03-19T09:16:59.422Z,100587.95
2023-03-19T09:18:02.838Z,100586.03
2023-03-19T09:19:05.249Z,100586.64
2023-03-19T09:20:09.775Z,100586.64
2023-03-19T09:21:13.302Z,100579.50
2023-03-19T09:22:15.707Z,100580.58
2023-03-19T09:23:18.522Z,100579.80
2023-03-19T09:24:22.132Z,100577.20
2023-03-19T09:25:26.339Z,100578.80
2023-03-19T09:26:28.783Z,100578.80
2023-03-19T09:27:32.485Z,100576.16
2023-03-19T09:28:35.910Z,100580.56
2023-03-19T09:29:38.621Z,100572.02
2023-03-19T09:30:42.012Z,100577.41
2023-03-19T09:31:44.580Z,100584.00
2023-03-19T09:32:47.103Z,100583.59
2023-03-19T09:33:49.799Z,100582.70
2023-03-19T09:34:52.787Z,100584.43
2023-03-19T09:35:56.454Z,100579.18
2023-03-19T09:36:59.628Z,100575.70
2023-03-19T09:38:03.209Z,100573.11
2023-03-19T09:39:07.977Z,100576.49
2023-03-19T09:40:17.241Z,100569.80
2023-03-19T09:41:52.444Z,100575.03
2023-03-19T09:43:06.993Z,100580.27
2023-03-19T09:44:35.479Z,100577.88
2023-03-19T09:45:38.443Z,100579.80
2023-03-19T09:47:06.124Z,100568.79
2023-03-19T09:48:12.654Z,100576.29
2023-03-19T09:49:30.328Z,100575.75
2023-03-19T09:50:34.519Z,100574.09
2023-03-19T09:51:47.398Z,100574.47
2023-03-19T09:53:06.016Z,100571.22
2023-03-19T09:54:16.285Z,100569.46
2023-03-19T09:55:45.138Z,100570.66
2023-03-19T09:56:48.171Z,100568.95
2023-03-19T09:57:53.454Z,100569.75
2023-03-19T09:58:56.684Z,100566.28
2023-03-19T09:59:59.039Z,100568.06
2023-03-19T10:01:02.280Z,100562.09
2023-03-19T10:02:26.298Z,100561.34
2023-03-19T10:03:51.782Z,100561.38
2023-03-19T10:05:13.646Z,100557.03
2023-03-19T10:06:33.093Z,100558.72
2023-03-19T10:07:41.965Z,100554.20
2023-03-19T10:09:18.793Z,100556.00
2023-03-19T10:10:38.178Z,100560.31
2023-03-19T10:12:08.789Z,100548.87
2023-03-19T10:13:23.889Z,100547.03
2023-03-19T10:14:56.940Z,100545.23
2023-03-19T10:16:01.246Z,100541.06
2023-03-19T10:17:08.086Z,100534.25
2023-03-19T10:18:20.192Z,100533.34
2023-03-19T10:19:26.121Z,100534.22
2023-03-19T10:20:33.451Z,100535.09
2023-03-19T10:21:45.035Z,100531.63
2023-03-19T10:22:51.072Z,100532.37
2023-03-19T10:24:04.008Z,100526.09
2023-03-19T10:25:12.990Z,100517.28
2023-03-19T10:26:21.051Z,100522.28
2023-03-19T10:27:27.991Z,100524.83
2023-03-19T10:28:32.055Z,100517.84
2023-03-19T10:29:36.147Z,100521.87
2023-03-19T10:30:41.836Z,100515.66
2023-03-19T10:31:54.204Z,100515.52
2023-03-19T10:33:24.600Z,100516.20
2023-03-19T10:34:36.818Z,100516.89
2023-03-19T10:35:42.902Z,100514.35
2023-03-19T10:36:45.601Z,100511.50
2023-03-19T10:37:50.347Z,100510.46
2023-03-19T10:38:52.913Z,100504.22
2023-03-19T10:40:00.796Z,100506.77
2023-03-19T10:41:13.510Z,100510.19
2023-03-19T10:42:40.245Z,100511.73
2023-03-19T10:43:46.249Z,100501.20
2023-03-19T10:44:52.194Z,100503.58
2023-03-19T10:45:56.998Z,100495.63
2023-03-19T10:47:02.924Z,100504.25
2023-03-19T10:48:06.196Z,100500.16
2023-03-19T10:49:14.507Z,100502.59
2023-03-19T10:50:22.934Z,100495.53
2023-03-19T10:51:26.914Z,100498.28
2023-03-19T10:52:33.307Z,100499.17
2023-03-19T10:53:38.105Z,100495.86
2023-03-19T10:54:45.552Z,100493.21
2023-03-19T10:56:03.977Z,100490.34
2023-03-19T10:57:08.179Z,100481.67
2023-03-19T10:58:20.091Z,100480.23
2023-03-19T10:59:26.278Z,100484.70
2023-03-19T11:00:32.111Z,100479.14
2023-03-19T11:01:37.898Z,100478.09
2023-03-19T11:02:49.713Z,100466.94
2023-03-19T11:03:58.871Z,100471.82
2023-03-19T11:05:12.005Z,100464.63
2023-03-19T11:06:20.685Z,100467.77
2023-03-19T11:07:26.845Z,100466.88
2023-03-19T11:08:35.784Z,100473.84
2023-03-19T11:09:39.469Z,100467.22
2023-03-19T11:10:47.979Z,100467.22
2023-03-19T11:11:56.795Z,100467.89
2023-03-19T11:13:08.669Z,100460.16
2023-03-19T11:14:17.328Z,100460.09
2023-03-19T11:15:26.077Z,100461.93
2023-03-19T11:16:28.598Z,100460.91
2023-03-19T11:17:40.650Z,100458.19
2023-03-19T11:18:47.546Z,100459.91
2023-03-19T11:19:58.924Z,100455.30
2023-03-19T11:21:08.826Z,100457.58
2023-03-19T11:22:25.637Z,100462.48
2023-03-19T11:23:30.143Z,100452.66
2023-03-19T11:24:35.026Z,100456.78
2023-03-19T11:25:44.109Z,100452.12
2023-03-19T11:26:51.067Z,100454.55
2023-03-19T11:28:03.047Z,100441.19
2023-03-19T11:29:06.032Z,100449.73
2023-03-19T11:30:20.438Z,100442.64
2023-03-19T11:33:09.140Z,100442.84
2023-03-19T11:34:33.469Z,100446.67
2023-03-19T11:35:40.269Z,100441.28
2023-03-19T11:36:58.883Z,100431.77
2023-03-19T11:38:04.384Z,100438.95
2023-03-19T11:39:30.014Z,100435.86
2023-03-19T11:41:02.101Z,100436.23
2023-03-19T11:42:34.083Z,100430.92
2023-03-19T11:43:49.524Z,100433.20
2023-03-19T11:45:05.157Z,100434.06
2023-03-19T11:46:24.099Z,100429.57
2023-03-19T11:47:37.067Z,100429.87
2023-03-19T11:49:02.983Z,100426.63
2023-03-19T11:50:29.252Z,100418.30
2023-03-19T11:51:44.892Z,100419.48
2023-03-19T11:53:18.011Z,100419.14
2023-03-19T11:54:23.904Z,100414.43
2023-03-19T11:55:38.335Z,100416.69
2023-03-19T11:56:50.154Z,100418.16
2023-03-19T11:58:01.803Z,100419.06
2023-03-19T11:59:28.746Z,100413.47
2023-03-19T12:00:52.612Z,100413.30
2023-03-19T12:02:18.392Z,100407.47
2023-03-19T12:04:59.699Z,100398.67
2023-03-19T12:06:15.180Z,100406.25
2023-03-19T12:07:38.757Z,100408.50
2023-03-19T12:08:45.524Z,100401.09
2023-03-19T12:09:52.523Z,100400.84
2023-03-19T12:11:19.252Z,100400.59
2023-03-19T12:12:29.254Z,100393.42
2023-03-19T12:13:41.836Z,100400.98
2023-03-19T12:14:50.802Z,100394.91
2023-03-19T12:16:10.195Z,100403.41
2023-03-19T12:17:44.894Z,100394.65
2023-03-19T12:18:57.750Z,100393.56
2023-03-19T12:20:32.082Z,100390.59
2023-03-19T12:23:28.909Z,100393.64
2023-03-19T12:24:57.793Z,100384.23
2023-03-19T12:26:08.178Z,100384.49
2023-03-19T12:27:38.874Z,100380.66
2023-03-19T12:29:02.814Z,100381.11
2023-03-19T12:30:24.870Z,100382.26
2023-03-19T12:31:34.450Z,100379.92
2023-03-19T12:33:01.763Z,100374.45
2023-03-19T12:34:13.210Z,100377.78
2023-03-19T12:35:19.216Z,100382.38
2023-03-19T12:36:25.510Z,100375.85
2023-03-19T12:37:32.301Z,100374.43
2023-03-19T12:38:38.544Z,100375.58
2023-03-19T12:39:45.033Z,100374.00
2023-03-19T12:40:51.086Z,100373.72